Latest Weather Observations for Sheoaks

IDV60801

Issued at 5:31 pm EST Sunday 30 August 2015 (issued every 30 minutes, with the page automatically refreshed every 10 minutes)

About weather observations | Map of weather stations | Latest weather observations for VIC | Other Formats
Station Details ID: 087168 Name: SHEOAKS Lat: -37.91 Lon: 144.13 Height: 236.7 m
Data from the previous 72 hours. | See also: Recent months at Sheoaks
Date/Time
EST
Temp
°C
App
Temp
°C
Dew
Point
Rel
Hum
%
Delta-T
°C
Wind Press
QNH
hPa
Press
MSL
hPa
Rain
since 9 am
mm
Dir
 
Spd
km/h
Gust
km/h
Spd
kts
Gust
kts
30/05:30pm 9.0 6.7 4.8 75 1.9 SE 6 11 3 6 1022.8 1023.1 0.0
30/05:00pm 9.2 6.3 4.4 72 2.1 SE 9 13 5 7 1022.9 1023.2 0.0
30/04:30pm 10.1 7.3 5.3 72 2.2 SE 9 13 5 7 1022.8 1023.1 0.0
30/04:00pm 10.3 7.9 5.1 70 2.4 SE 7 11 4 6 1022.9 1023.2 0.0
30/03:30pm 10.6 8.2 5.2 69 2.5 SSW 7 11 4 6 1023.1 1023.4 0.0
30/03:00pm 10.4 7.7 5.4 71 2.3 SSE 9 13 5 7 1023.2 1023.5 0.0
30/02:30pm 10.4 7.5 4.8 68 2.6 SSE 9 13 5 7 1023.4 1023.8 0.0
30/02:00pm 10.3 7.4 4.5 67 2.6 S 9 15 5 8 1023.4 1023.8 0.0
30/01:30pm 9.9 6.7 5.1 72 2.2 S 11 15 6 8 1023.6 1024.0 0.0
30/01:00pm 10.0 7.2 5.0 71 2.3 S 9 17 5 9 1023.8 1024.2 0.0
30/12:30pm 9.4 6.2 5.2 75 1.9 S 11 15 6 8 1024.2 1024.6 0.0
30/12:00pm 9.0 5.8 5.2 77 1.7 S 11 15 6 8 1024.7 1025.1 0.0
30/11:30am 9.0 6.0 5.9 81 1.4 SSW 11 17 6 9 1025.2 1025.5 0.0
30/11:00am 8.8 5.6 5.0 77 1.7 SSW 11 17 6 9 1025.4 1025.7 0.0
30/10:30am 8.5 5.8 5.6 82 1.3 SSW 9 15 5 8 1025.5 1025.8 0.0
30/10:00am 8.0 5.8 6.0 87 0.9 SW 7 13 4 7 1025.6 1025.9 0.0
30/09:30am 7.7 5.5 6.3 91 0.6 SW 7 13 4 7 1025.7 1026.0 0.0
30/09:00am 7.2 5.0 6.1 93 0.5 WSW 7 13 4 7 1025.7 1026.0 0.6
30/08:30am 6.8 4.8 6.2 96 0.3 WSW 6 13 3 7 1025.8 1026.1 0.6
30/08:00am 6.5 4.3 6.4 99 0.0 WSW 7 13 4 7 1025.9 1026.2 0.6
30/07:30am 6.4 4.4 6.4 100 0.0 WSW 6 9 3 5 1025.5 1025.8 0.6
30/07:00am 6.3 4.1 6.3 100 0.0 W 7 11 4 6 1025.1 1025.4 0.6
30/06:30am 6.3 3.7 6.3 100 0.0 W 9 13 5 7 1024.9 1025.2 0.6
30/06:00am 6.3 3.7 6.3 100 0.0 W 9 13 5 7 1024.4 1024.8 0.6
30/05:30am 6.2 4.1 5.9 98 0.1 WSW 6 13 3 7 1024.5 1024.9 0.6
30/05:00am 6.1 3.9 6.1 100 0.0 WSW 7 11 4 6 1024.4 1024.8 0.6
30/04:30am 6.1 3.5 6.1 100 0.0 W 9 15 5 8 1024.4 1024.8 0.6
30/04:00am 6.0 3.8 6.0 100 0.0 W 7 11 4 6 1024.4 1024.8 0.6
30/03:30am 6.2 4.0 6.2 100 0.0 WSW 7 11 4 6 1024.6 1025.0 0.6
30/03:00am 6.3 4.1 6.3 100 0.0 WSW 7 13 4 7 1024.9 1025.2 0.4
30/02:30am 6.3 3.7 6.3 100 0.0 WSW 9 15 5 8 1025.2 1025.5 0.4
30/02:00am 6.4 4.4 6.4 100 0.0 WSW 6 11 3 6 1025.3 1025.6 0.4
30/01:30am 6.4 4.4 6.4 100 0.0 WSW 6 9 3 5 1025.5 1025.8 0.4
30/01:00am 6.5 4.5 6.4 99 0.0 SW 6 9 3 5 1025.7 1026.0 0.2
30/12:30am 6.5 4.3 6.4 99 0.0 WSW 7 15 4 8 1025.9 1026.2 0.0
30/12:00am 6.5 4.3 6.2 98 0.1 SW 7 20 4 11 1026.0 1026.3 0.0
 
Date/Time
EST
Temp
°C
App
Temp
°C
Dew
Point
Rel
Hum
%
Delta-T
°C
Wind Press
QNH
hPa
Press
MSL
hPa
Rain
since 9 am
mm
Dir
 
Spd
km/h
Gust
km/h
Spd
kts
Gust
kts
29/11:30pm 6.6 3.7 6.5 99 0.0 W 11 17 6 9 1026.2 1026.5 0.0
29/11:00pm 6.5 3.9 6.2 98 0.1 WSW 9 17 5 9 1026.4 1026.7 0.0
29/10:30pm 6.9 4.4 6.6 98 0.1 WSW 9 15 5 8 1026.5 1026.8 0.0
29/10:00pm 7.1 5.0 6.5 96 0.3 WSW 7 13 4 7 1026.5 1026.8 0.0
29/09:30pm 7.3 5.1 6.4 94 0.4 WSW 7 13 4 7 1026.3 1026.6 0.0
29/09:00pm 7.5 5.4 6.6 94 0.4 WSW 7 13 4 7 1026.3 1026.6 0.0
29/08:30pm 7.7 5.6 6.6 93 0.5 SW 7 13 4 7 1026.2 1026.5 0.0
29/08:00pm 7.9 5.8 6.7 92 0.6 WSW 7 13 4 7 1026.3 1026.6 0.0
29/07:30pm 8.3 5.7 6.1 86 1.0 SW 9 15 5 8 1026.3 1026.6 0.0
29/07:00pm 8.3 5.3 6.1 86 1.0 SW 11 17 6 9 1026.2 1026.5 0.0
29/06:30pm 8.4 5.4 5.9 84 1.2 SW 11 17 6 9 1025.9 1026.2 0.0
29/06:00pm 8.3 6.1 6.3 87 0.9 SW 7 11 4 6 1025.7 1026.0 0.0
29/05:30pm 8.9 4.8 6.3 84 1.2 SSW 17 26 9 14 1025.5 1025.8 0.0
29/05:00pm 9.5 6.0 5.5 76 1.8 SSW 13 22 7 12 1025.3 1025.6 0.0
29/04:30pm 9.6 5.4 5.6 76 1.8 SW 17 26 9 14 1025.3 1025.6 0.0
29/04:00pm 9.7 5.5 5.9 77 1.8 SW 17 28 9 15 1025.3 1025.6 0.0
29/03:30pm 10.2 6.0 5.6 73 2.1 SW 17 26 9 14 1025.3 1025.6 0.0
29/03:00pm 9.4 5.2 5.8 78 1.7 SSW 17 28 9 15 1025.4 1025.7 0.0
29/02:30pm 9.9 6.1 5.7 75 1.9 SSW 15 22 8 12 1025.4 1025.7 0.0
29/02:00pm 9.6 6.2 5.8 77 1.8 SW 13 20 7 11 1025.6 1025.9 0.0
29/01:30pm 9.8 6.2 6.7 81 1.5 SW 15 30 8 16 1025.9 1026.2 0.0
29/01:00pm 9.3 4.9 4.9 74 2.0 SW 17 28 9 15 1026.2 1026.5 0.0
29/12:30pm 8.9 4.9 4.9 76 1.8 SW 15 22 8 12 1026.6 1026.9 0.0
29/12:00pm 8.3 4.2 4.5 77 1.7 SW 15 24 8 13 1027.0 1027.4 0.0
29/11:30am 8.1 4.4 4.3 77 1.7 SW 13 24 7 13 1027.2 1027.6 0.0
29/11:00am 8.0 4.2 4.0 76 1.7 WSW 13 24 7 13 1027.2 1027.6 0.0
29/10:30am 7.1 3.1 2.8 74 1.8 W 13 24 7 13 1027.2 1027.6 0.0
29/10:00am 6.9 2.7 1.6 69 2.2 WSW 13 26 7 14 1027.4 1027.8 0.0
29/09:30am 6.8 2.7 2.1 72 1.9 WSW 13 20 7 11 1027.4 1027.8 0.0
29/09:00am 5.4 1.5 1.3 75 1.6 WSW 11 19 6 10 1027.6 1028.0 3.6
29/08:30am 4.8 0.5 0.9 76 1.5 W 13 20 7 11 1027.4 1027.8 3.6
29/08:00am 4.3 -0.4 0.6 77 1.4 W 15 22 8 12 1027.2 1027.6 3.6
29/07:30am 3.8 -0.9 0.7 80 1.2 W 15 20 8 11 1027.0 1027.4 3.6
29/07:00am 3.2 -1.2 0.4 82 1.1 W 13 19 7 10 1026.9 1027.3 3.6
29/06:30am 2.2 -1.1 -0.1 85 0.9 WNW 7 17 4 9 1026.8 1027.1 3.6
29/06:00am 2.8 0.8 0.0 82 1.0 CALM 0 4 0 2 1026.5 1026.8 3.6
29/05:30am 3.6 0.6 0.5 80 1.2 WSW 6 11 3 6 1026.6 1026.9 3.6
29/05:00am 3.7 0.1 0.4 79 1.3 W 9 15 5 8 1026.6 1026.9 3.6
29/04:30am 3.3 1.0 0.2 80 1.2 WNW 2 6 1 3 1026.5 1026.8 3.6
29/04:00am 3.8 1.1 0.0 76 1.4 WSW 4 7 2 4 1026.5 1026.8 3.6
29/03:30am 3.9 0.8 -0.1 75 1.5 SW 6 11 3 6 1026.5 1026.8 3.6
29/03:00am 2.9 0.1 -0.2 80 1.2 W 4 11 2 6 1026.5 1026.8 3.6
29/02:30am 3.5 0.4 0.2 79 1.3 W 6 11 3 6 1026.7 1027.0 3.6
29/02:00am 3.9 0.3 0.6 79 1.3 W 9 17 5 9 1027.0 1027.4 3.6
29/01:30am 4.3 0.4 1.3 81 1.2 W 11 17 6 9 1026.9 1027.3 3.6
29/01:00am 4.7 0.4 0.7 75 1.6 WSW 13 20 7 11 1026.9 1027.3 3.6
29/12:30am 4.7 0.4 0.8 76 1.5 W 13 22 7 12 1026.8 1027.1 3.6
29/12:00am 4.3 0.0 1.2 80 1.2 W 13 19 7 10 1026.8 1027.1 3.6
 
Date/Time
EST
Temp
°C
App
Temp
°C
Dew
Point
Rel
Hum
%
Delta-T
°C
Wind Press
QNH
hPa
Press
MSL
hPa
Rain
since 9 am
mm
Dir
 
Spd
km/h
Gust
km/h
Spd
kts
Gust
kts
28/11:30pm 4.6 0.3 0.7 76 1.5 W 13 19 7 10 1026.8 1027.1 3.6
28/11:00pm 5.1 1.2 0.9 74 1.6 W 11 17 6 9 1027.0 1027.4 3.6
28/10:30pm 4.8 0.8 0.8 75 1.6 W 11 13 6 7 1027.1 1027.5 3.6
28/10:00pm 4.8 1.6 0.9 76 1.5 W 7 15 4 8 1027.2 1027.6 3.6
28/09:30pm 5.0 2.4 1.1 76 1.5 WSW 4 7 2 4 1027.4 1027.8 3.6
28/09:00pm 5.3 3.2 1.6 77 1.5 SW 2 9 1 5 1027.2 1027.6 3.6
28/08:30pm 5.6 2.7 1.3 74 1.7 S 6 7 3 4 1027.0 1027.4 3.6
28/08:00pm 6.1 2.6 1.2 71 2.0 S 9 15 5 8 1026.7 1027.0 3.6
28/07:30pm 6.8 3.4 1.9 71 2.0 S 9 11 5 6 1026.7 1027.0 3.6
28/07:00pm 7.1 3.3 1.8 69 2.2 S 11 19 6 10 1026.6 1026.9 3.6
28/06:30pm 7.4 4.2 3.3 75 1.8 S 9 15 5 8 1026.3 1026.6 3.6
28/06:00pm 7.8 4.3 3.5 74 1.9 S 11 15 6 8 1026.0 1026.3 3.6
28/05:30pm 8.1 5.6 4.5 78 1.6 SSE 7 13 4 7 1025.6 1025.9 3.6
28/05:00pm 8.2 4.9 4.4 77 1.7 S 11 19 6 10 1025.4 1025.7 3.6
28/04:30pm 8.5 4.9 5.1 79 1.5 S 13 17 7 9 1025.3 1025.6 3.6
28/04:00pm 8.8 5.4 5.7 81 1.4 SSE 13 20 7 11 1025.2 1025.5 3.6
28/03:30pm 8.8 5.5 6.4 85 1.1 SSE 13 22 7 12 1025.2 1025.5 3.6
28/03:00pm 8.7 5.2 7.0 89 0.8 S 15 26 8 14 1025.2 1025.5 3.6
28/02:30pm 8.8 5.4 7.7 93 0.5 S 15 24 8 13 1025.1 1025.4 2.6
28/02:00pm 9.2 7.2 8.6 96 0.3 S 9 19 5 10 1025.1 1025.4 2.4
28/01:30pm 9.4 6.8 7.8 90 0.8 S 11 15 6 8 1025.1 1025.4 0.6
28/01:00pm 11.5 8.8 5.8 68 2.7 SSW 9 15 5 8 1025.1 1025.4 0.0
28/12:30pm 10.8 8.3 6.4 74 2.1 S 9 19 5 10 1025.8 1026.1 0.0
28/12:00pm 10.3 7.7 6.3 76 1.9 SSW 9 17 5 9 1026.1 1026.4 0.0
28/11:30am 10.6 7.9 5.8 72 2.2 SSW 9 15 5 8 1026.4 1026.7 0.0
28/11:00am 10.2 6.9 6.5 78 1.7 SSW 13 19 7 10 1026.6 1026.9 0.0
28/10:30am 9.6 7.1 6.5 81 1.5 SW 9 17 5 9 1026.6 1026.9 0.0
28/10:00am 9.0 6.6 7.0 87 0.9 SW 9 15 5 8 1026.6 1026.9 0.0
28/09:30am 8.1 5.7 6.9 92 0.6 WSW 9 13 5 7 1026.4 1026.7 0.0
28/09:00am 7.7 5.7 7.3 97 0.2 WSW 7 15 4 8 1026.4 1026.7 4.8
28/08:30am 7.2 4.8 7.1 99 0.0 WSW 9 15 5 8 1026.2 1026.5 4.8
28/08:00am 6.9 4.1 6.9 100 0.0 WSW 11 17 6 9 1025.9 1026.2 4.8
28/07:30am 6.5 4.0 6.5 100 0.0 W 9 11 5 6 1025.7 1026.0 4.6
28/07:00am 6.4 4.2 6.4 100 0.0 WSW 7 15 4 8 1025.5 1025.8 4.6
28/06:30am 6.3 4.1 6.2 99 0.0 W 7 13 4 7 1025.3 1025.6 4.6
28/06:00am 6.5 4.5 6.4 99 0.0 WSW 6 11 3 6 1025.2 1025.5 4.6
28/05:30am 6.8 4.9 6.7 99 0.0 WSW 6 15 3 8 1024.9 1025.2 4.6
28/05:00am 6.6 4.3 5.9 95 0.3 WSW 7 15 4 8 1024.7 1025.1 4.6
28/04:30am 6.2 3.5 5.6 96 0.3 W 9 13 5 7 1024.5 1024.9 4.6
28/04:00am 6.2 3.5 5.6 96 0.3 W 9 15 5 8 1024.4 1024.8 4.6
28/03:30am 6.4 3.8 6.1 98 0.1 W 9 15 5 8 1024.3 1024.7 4.6
28/03:00am 7.0 5.1 6.9 99 0.0 WSW 6 11 3 6 1024.4 1024.8 4.6
28/02:30am 7.3 5.3 7.2 99 0.0 WSW 7 13 4 7 1024.6 1025.0 4.4
28/02:00am 7.8 5.7 6.7 93 0.5 SW 7 13 4 7 1024.6 1025.0 4.0
28/01:30am 7.7 5.7 6.3 91 0.6 WSW 6 9 3 5 1024.5 1024.9 4.0
28/01:00am 7.6 6.0 6.4 92 0.6 WSW 4 7 2 4 1024.4 1024.8 4.0
28/12:30am 7.5 5.5 6.1 91 0.6 SW 6 11 3 6 1024.4 1024.8 4.0
28/12:00am 7.8 5.9 6.7 93 0.5 SSW 6 9 3 5 1024.3 1024.7 4.0
 
Date/Time
EST
Temp
°C
App
Temp
°C
Dew
Point
Rel
Hum
%
Delta-T
°C
Wind Press
QNH
hPa
Press
MSL
hPa
Rain
since 9 am
mm
Dir
 
Spd
km/h
Gust
km/h
Spd
kts
Gust
kts
27/11:30pm 8.3 6.6 7.4 94 0.4 SSW 6 9 3 5 1024.4 1024.8 4.0
27/11:00pm 8.5 6.2 7.3 92 0.6 S 9 13 5 7 1024.4 1024.8 4.0
27/10:30pm 8.7 5.7 7.9 95 0.4 S 13 19 7 10 1024.1 1024.5 4.0
27/10:00pm 8.9 6.8 8.1 95 0.4 S 9 17 5 9 1024.0 1024.4 4.0
27/09:30pm 9.2 7.0 9.2 100 0.0 S 11 19 6 10 1023.8 1024.2 3.6
27/09:00pm 9.3 5.9 9.3 100 0.0 S 17 28 9 15 1023.4 1023.8 3.6
27/08:30pm 9.4 6.8 9.3 99 0.1 S 13 17 7 9 1023.2 1023.5 3.4
27/08:00pm 9.5 7.2 9.0 97 0.2 SSW 11 17 6 9 1023.0 1023.3 3.4
27/07:30pm 9.6 7.7 9.0 96 0.3 SSW 9 13 5 7 1022.8 1023.1 3.2
27/07:00pm 9.7 7.4 8.9 95 0.4 S 11 17 6 9 1022.5 1022.8 3.2
27/06:30pm 8.7 8.4 8.6 99 0.0 CALM 0 4 0 2 1022.0 1022.3 3.2
27/06:00pm 9.0 8.6 8.4 96 0.3 CALM 0 0 0 0 1021.5 1021.8 3.2

Other Formats:

Comma delimited format used in spreadsheet applications
http://www.bom.gov.au/fwo/IDV60801/IDV60801.94863.axf

JavaScript Object Notation format (JSON) in row-major order
http://www.bom.gov.au/fwo/IDV60801/IDV60801.94863.json